Terminal Aerodrome Forecast
Issued by NWS

Home | Current Version | Previous Version | Graphics & Text | Print | Product List | Glossary On
Versions: 1 2 3 4 5 6 7 8 9 10 11 12
230
FTUS43 KMPX 172321
TAFAXN
TAF
KAXN 172321Z 1800/1824 34009KT P6SM BKN120
     FM181100 32010KT P6SM FEW200
     FM181500 32013G21KT P6SM BKN030
     FM182200 31015G25KT P6SM SCT250=

USA.gov is the U.S. government's official web portal to all federal, state and local government web resources and services.